Data for 07/18/2009

Time Sea-Level Adjusted Pressure Absolute Pressure Temperature Relative Humidity Dew Point   
(mb) (inHg) (mb) (inHg) (C) (F) (%) (C) (F)
00:05 1025 30.27 854 25.22 17.4 63.4 49 6.8 44.3
00:10 1025 30.27 854 25.22 17.8 64.1 48 6.8 44.3
00:15 1025 30.27 854 25.22 18 64.3 46 6.3 43.3
00:20 1025 30.27 854 25.22 18.3 65 45 6.3 43.3
00:25 1025 30.27 854 25.22 18.4 65 47 7.1 44.8
00:30 1025 30.27 854 25.22 17.6 63.8 49 7 44.5
00:35 1025 30.27 854 25.22 17.7 63.8 45 5.9 42.6
00:40 1025 30.27 854 25.22 18.1 64.5 44 5.7 42.2
00:45 1025 30.27 854 25.22 18.4 65 43 5.7 42.2
00:50 1025 30.27 854 25.22 18.4 65.2 43 5.9 42.7
00:55 1025 30.27 854 25.22 18.2 64.8 47 6.8 44.2
01:00 1025 30.27 854 25.22 17.9 64.2 46 6.3 43.3
01:05 1025 30.27 854 25.22 17.8 64.1 44 5.5 41.9
01:10 1025 30.27 854 25.22 18.1 64.6 43 5.6 42.1
01:15 1025 30.27 854 25.22 18.4 65.2 43 5.8 42.4
01:20 1025 30.27 854 25.22 18.6 65.5 42 5.6 42
01:25 1025 30.27 854 25.22 18.5 65.3 41 5.3 41.5
01:30 1025 30.27 854 25.22 18.4 65.2 42 5.5 41.9
01:35 1025 30.27 854 25.22 18 64.3 44 5.7 42.3
01:40 1025 30.27 854 25.22 17.6 63.7 45 5.8 42.4
01:45 1025 30.27 854 25.22 17.5 63.5 45 5.6 42.1
01:50 1025 30.27 854 25.22 17.6 63.6 45 5.7 42.2
01:55 1025 30.27 854 25.22 17.6 63.8 45 5.8 42.4
02:00 1025 30.27 854 25.22 17.8 64 48 6.8 44.3
02:05 1025 30.27 854 25.22 17.7 63.8 46 5.9 42.7
02:10 1025 30.27 854 25.22 17.4 63.3 46 5.8 42.4
02:15 1025 30.27 854 25.22 17.2 62.9 49 6.5 43.7
02:20 1025 30.27 854 25.22 17.2 62.9 45 5.3 41.6
02:25 1025 30.27 855 25.25 17.3 63.2 45 5.4 41.7
02:30 1025 30.27 855 25.25 17.4 63.4 45 5.6 42.2
02:35 1025 30.27 854 25.22 17.4 63.3 44 5.3 41.5
02:40 1025 30.27 854 25.22 17.5 63.6 46 5.8 42.4
02:45 1025 30.27 854 25.22 17.6 63.6 45 5.7 42.3
02:50 1025 30.27 854 25.22 17.5 63.4 48 6.5 43.6
02:55 1025 30.27 854 25.22 17.3 63.2 46 5.6 42.1
03:00 1025 30.27 854 25.22 17.7 63.9 44 5.5 41.9
03:05 1025 30.27 854 25.22 18 64.4 42 5.1 41.2
03:10 1025 30.27 854 25.22 18 64.5 43 5.3 41.6
03:15 1025 30.27 854 25.22 18 64.3 43 5.3 41.5
03:20 1025 30.27 854 25.22 17.6 63.7 47 6.2 43.2
03:25 1025 30.27 854 25.22 16.9 62.5 48 6 42.8
03:30 1025 30.27 854 25.22 16.3 61.4 51 6.4 43.5
03:35 1025 30.27 854 25.22 15.6 60.1 53 6 42.9
03:40 1025 30.27 854 25.22 15.4 59.7 55 6.5 43.7
03:45 1025 30.27 854 25.22 15.1 59.2 53 5.7 42.3
03:50 1025 30.27 854 25.22 15.3 59.5 53 5.7 42.3
03:55 1025 30.27 854 25.22 15.6 60.2 50 5.3 41.5
04:00 1025 30.27 854 25.22 16.1 61 51 6 42.8
04:05 1025 30.27 854 25.22 16.1 61.1 48 5.4 41.6
04:10 1025 30.27 854 25.22 16.4 61.5 48 5.4 41.8
04:15 1025 30.27 854 25.22 16.3 61.3 49 5.8 42.4
04:20 1025 30.27 854 25.22 16 60.7 50 5.8 42.4
04:25 1025 30.27 854 25.22 15.8 60.5 54 6.5 43.7
04:30 1025 30.27 854 25.22 15.6 60.1 52 5.8 42.5
04:35 1025 30.27 854 25.22 15.6 60.1 54 6.3 43.4
04:40 1025 30.27 854 25.22 15.6 60.1 54 6.4 43.6
04:45 1025 30.27 854 25.22 15.4 59.7 53 6 42.8
04:50 1025 30.27 854 25.22 15.2 59.4 53 5.7 42.3
04:55 1025 30.27 854 25.22 15.2 59.4 55 6.4 43.6
05:00 1025 30.27 854 25.22 15.3 59.5 52 5.5 41.8
05:05 1025 30.27 854 25.22 15.6 60.1 51 5.6 42.1
05:10 1025 30.27 854 25.22 15.5 59.9 52 5.7 42.3
05:15 1025 30.27 854 25.22 15.4 59.8 52 5.6 42.1
05:20 1025 30.27 854 25.22 15.5 59.9 53 6 42.8
05:25 1025 30.27 854 25.22 15.3 59.6 53 5.9 42.6
05:30 1025 30.27 854 25.22 15.1 59.2 53 5.8 42.4
05:35 1025 30.27 854 25.22 15.2 59.3 53 5.8 42.4
05:40 1025 30.27 854 25.22 15.3 59.6 54 6 42.8
05:45 1025 30.27 854 25.22 15.3 59.5 54 6.2 43.2
05:50 1025 30.27 854 25.22 15.2 59.4 52 5.6 42.1
05:55 1025 30.27 854 25.22 15.4 59.6 54 6.1 43
06:00 1025 30.27 854 25.22 15.1 59.2 53 5.7 42.2
06:05 1025 30.27 854 25.22 15.2 59.4 54 6 42.8
06:10 1025 30.27 854 25.22 15 59.1 58 6.8 44.3
06:15 1025 30.27 854 25.22 15.1 59.1 53 5.6 42.1
06:20 1025 30.27 854 25.22 15.2 59.4 53 5.8 42.4
06:25 1025 30.27 854 25.22 15.5 59.8 52 5.7 42.3
06:30 1025 30.27 854 25.22 15.6 60.1 52 5.9 42.6
06:35 1025 30.27 854 25.22 15.7 60.2 55 6.7 44
06:40 1025 30.27 854 25.22 15.7 60.2 53 6.1 43
06:45 1025 30.27 854 25.22 15.5 59.9 53 6 42.8
06:50 1025 30.27 854 25.22 15.5 59.8 53 6 42.8
06:55 1025 30.27 854 25.22 15.6 60.1 51 5.7 42.2
07:00 1025 30.27 854 25.22 15.8 60.5 49 5.3 41.5
07:05 1025 30.27 854 25.22 16.2 61.1 49 5.6 42
07:10 1025 30.27 854 25.22 16.3 61.3 50 6 42.8
07:15 1025 30.27 854 25.22 16.5 61.7 50 6.2 43.2
07:20 1025 30.27 854 25.22 16.7 62 48 5.8 42.4
07:25 1025 30.27 854 25.22 17.1 62.8 49 6.5 43.7
07:30 1025 30.27 854 25.22 17.4 63.4 48 6.5 43.7
07:35 1025 30.27 854 25.22 17.7 63.8 47 6.4 43.6
07:40 1025 30.27 854 25.22 18 64.3 47 6.5 43.8
07:45 1025 30.27 854 25.22 18.2 64.7 47 6.9 44.3
07:50 1025 30.27 854 25.22 18.7 65.6 46 6.9 44.5
07:55 1025 30.27 854 25.22 19.2 66.5 45 6.9 44.5
08:00 1025 30.27 854 25.22 19.2 66.6 44 6.9 44.5
08:05 1025 30.27 854 25.22 19.3 66.8 45 7.2 44.9
08:10 1025 30.27 854 25.22 19.5 67 46 7.6 45.6
08:15 1025 30.27 854 25.22 19.4 66.9 46 7.8 46
08:20 1025 30.27 854 25.22 19.1 66.5 46 7.5 45.5
08:25 1025 30.27 854 25.22 19 66.1 46 7.4 45.2
08:30 1025 30.27 854 25.22 19.5 67.1 43 6.8 44.3
08:35 1025 30.27 854 25.22 19.9 67.8 43 7.2 45
08:40 1025 30.27 854 25.22 19.9 67.8 43 7.1 44.7
08:45 1025 30.27 855 25.25 20.3 68.6 41 6.9 44.4
08:50 1025 30.27 855 25.25 20.2 68.4 43 7.3 45.1
08:55 1025 30.27 855 25.25 20.4 68.7 39 6.3 43.3
09:00 1025 30.27 855 25.25 21.1 69.9 39 6.7 44.1
09:05 1025 30.27 855 25.25 21.2 70.1 40 7.2 45
09:10 1025 30.27 855 25.25 21.4 70.5 39 7 44.6
09:15 1025 30.27 855 25.25 21.7 71 38 6.9 44.4
09:20 1025 30.27 855 25.25 22.2 72 37 7 44.5
09:25 1025 30.27 855 25.25 22.6 72.6 36 7.1 44.9
09:30 1025 30.27 855 25.25 22 71.6 36 6.5 43.7
09:35 1025 30.27 854 25.22 21.9 71.3 39 7.3 45.2
09:40 1025 30.27 855 25.25 22.7 72.8 35 6.8 44.3
09:45 1025 30.27 855 25.25 22.6 72.6 35 6.8 44.2
09:50 1025 30.27 855 25.25 22.1 71.9 38 7.3 45.2
09:55 1025 30.27 855 25.25 22.1 71.7 37 6.9 44.4
10:00 1025 30.27 855 25.25 21.9 71.4 38 7 44.7
10:05 1025 30.27 855 25.25 22.3 72.1 37 7 44.6
10:10 1025 30.27 855 25.25 22.4 72.4 37 7.3 45.2
10:15 1025 30.27 855 25.25 22.3 72.1 39 8 46.4
10:20 1025 30.27 855 25.25 22.7 72.8 40 8.6 47.5
10:25 1025 30.27 854 25.22 22.2 72 42 9 48.1
10:30 1025 30.27 854 25.22 22.6 72.6 38 7.5 45.6
10:35 1025 30.27 855 25.25 23 73.3 38 8 46.4
10:40 1025 30.27 854 25.22 22.9 73.3 36 7.3 45.2
10:45 1025 30.27 854 25.22 22.5 72.4 37 7.4 45.3
10:50 1025 30.27 854 25.22 23.2 73.8 35 6.9 44.4
10:55 1025 30.27 854 25.22 23.2 73.7 34 6.6 43.9
11:00 1025 30.27 854 25.22 23.8 74.8 33 6.7 44.1
11:05 1025 30.27 854 25.22 24.7 76.4 32 7 44.5
11:10 1025 30.27 854 25.22 25.1 77.1 30 6.4 43.5
11:15 1025 30.27 854 25.22 24.8 76.6 31 6.8 44.3
11:20 1025 30.27 854 25.22 25 77 30 6.5 43.7
11:25 1025 30.27 854 25.22 24.3 75.7 32 6.6 43.8
11:30 1025 30.27 854 25.22 24.4 76 30 6 42.8
11:35 1025 30.27 854 25.22 25.5 77.9 30 6.9 44.4
11:40 1025 30.27 854 25.22 25.6 78 29 6.6 43.9
11:45 1025 30.27 854 25.22 26 78.9 29 6.9 44.4
11:50 1025 30.27 854 25.22 26.1 79 29 6.9 44.3
11:55 1025 30.27 854 25.22 26.4 79.5 28 6.5 43.7
12:00 1024 30.24 854 25.22 26.9 80.5 26 6.3 43.4
12:05 1024 30.24 854 25.22 27.6 81.7 26 6.6 43.8
12:10 1024 30.24 853 25.19 26.9 80.3 27 6.6 43.8
12:15 1024 30.24 853 25.19 27.5 81.6 25 6 42.8
12:20 1024 30.24 853 25.19 27.3 81.2 27 6.8 44.3
12:25 1024 30.24 853 25.19 27.5 81.4 28 7.6 45.6
12:30 1024 30.24 853 25.19 26.9 80.3 30 7.9 46.2
12:35 1024 30.24 853 25.19 26.9 80.3 29 7.6 45.7
12:40 1024 30.24 853 25.19 26.1 78.9 30 7.2 45
12:45 1024 30.24 853 25.19 26 78.8 30 7.4 45.3
12:50 1024 30.24 853 25.19 27 80.6 30 8.1 46.5
12:55 1024 30.24 853 25.19 27.2 81 29 8.1 46.6
13:00 1024 30.24 853 25.19 27.7 81.8 29 8.4 47.2
13:05 1024 30.24 853 25.19 27.5 81.4 29 7.9 46.3
13:10 1024 30.24 853 25.19 27.2 80.9 31 8.7 47.6
13:15 1024 30.24 853 25.19 28 82.5 29 8.5 47.3
13:20 1024 30.24 853 25.19 28 82.3 29 8.6 47.4
13:25 1024 30.24 853 25.19 28.1 82.5 28 7.9 46.2
13:30 1024 30.24 853 25.19 27.1 80.8 29 8 46.3
13:35 1024 30.24 853 25.19 27.9 82.1 24 6 42.7
13:40 1024 30.24 853 25.19 29.3 84.7 25 7.5 45.5
13:45 1024 30.24 853 25.19 29.1 84.4 25 7.6 45.7
13:50 1024 30.24 853 25.19 28.5 83.3 23 5.9 42.7
13:55 1024 30.24 853 25.19 29.2 84.5 23 6.4 43.6
14:00 1024 30.24 853 25.19 29.4 85 22 5.7 42.2
14:05 1024 30.24 853 25.19 29.6 85.2 21 5.2 41.4
14:10 1024 30.24 853 25.19 30.5 87 21 5.8 42.4
14:15 1024 30.24 853 25.19 30.7 87.2 21 6.2 43.2
14:20 1024 30.24 853 25.19 30.3 86.5 22 6.3 43.3
14:25 1024 30.24 853 25.19 30.3 86.6 22 6.5 43.7
14:30 1023 30.21 853 25.19 30.7 87.3 21 6.2 43.1
14:35 1023 30.21 853 25.19 31.5 88.8 19 5.6 42
14:40 1023 30.21 853 25.19 30.9 87.5 19 4.9 40.9
14:45 1023 30.21 852 25.16 30.7 87.2 19 4.9 40.8
14:50 1023 30.21 852 25.16 31.2 88.2 15 2.3 36.1
14:55 1023 30.21 852 25.16 30.8 87.5 19 4.7 40.5
15:00 1023 30.21 852 25.16 30.9 87.5 15 1.3 34.3
15:05 1023 30.21 852 25.16 31.3 88.4 14 1 33.8
15:10 1023 30.21 852 25.16 30.8 87.4 13 -0.1 31.9
15:15 1023 30.21 852 25.16 30.7 87.2 14 0.2 32.3
15:20 1023 30.21 852 25.16 30.9 87.5 15 1.9 35.4
15:25 1023 30.21 852 25.16 31 87.8 15 1.3 34.3
15:30 1023 30.21 852 25.16 31.1 88.1 15 2 35.7
15:35 1023 30.21 852 25.16 30.6 87 17 3.2 37.8
15:40 1023 30.21 852 25.16 30 86.1 18 3.2 37.7
15:45 1023 30.21 852 25.16 30.1 86.1 15 1.3 34.4
15:50 1023 30.21 852 25.16 30.8 87.4 14 1.1 33.9
15:55 1023 30.21 852 25.16 31.2 88.2 14 1.3 34.4
16:00 1023 30.21 852 25.16 31.1 87.9 15 1.6 34.8
16:05 1023 30.21 852 25.16 30.7 87.3 15 1.4 34.4
16:10 1022 30.18 852 25.16 30.5 86.9 15 1 33.8
16:15 1022 30.18 852 25.16 30.9 87.7 13 -0.1 31.9
16:20 1022 30.18 852 25.16 30.6 87 15 1 33.7
16:25 1022 30.18 852 25.16 30.8 87.4 14 0.4 32.7
16:30 1022 30.18 851 25.13 31.4 88.4 14 0.6 33.1
16:35 1022 30.18 851 25.13 31 87.8 14 0.5 32.8
16:40 1022 30.18 851 25.13 30.5 87 14 0.9 33.5
16:45 1022 30.18 851 25.13 31.6 88.8 14 0.9 33.6
16:50 1022 30.18 851 25.13 31.6 89 14 0.9 33.6
16:55 1022 30.18 851 25.13 30.7 87.2 14 0.9 33.7
17:00 1022 30.18 851 25.13 31 87.8 14 0.8 33.4
17:05 1022 30.18 851 25.13 31.8 89.3 14 1.4 34.6
17:10 1022 30.18 851 25.13 32.2 90 14 1.4 34.4
17:15 1022 30.18 851 25.13 32.4 90.2 14 1.8 35.3
17:20 1022 30.18 851 25.13 31.1 87.9 15 1.7 35.1
17:25 1022 30.18 851 25.13 31.3 88.3 14 0.7 33.2
17:30 1022 30.18 851 25.13 32.2 89.9 13 1.2 34.2
17:35 1022 30.18 851 25.13 33 91.4 13 1.2 34.1
17:40 1022 30.18 851 25.13 33 91.5 13 1.7 35.1
17:45 1022 30.18 851 25.13 32.9 91.2 13 1.2 34.2
17:50 1021 30.15 851 25.13 32.9 91.3 16 4.4 39.9
17:55 1021 30.15 851 25.13 31.5 88.8 14 0.9 33.6
18:00 1021 30.15 851 25.13 30.9 87.7 14 0.9 33.6
18:05 1021 30.15 850 25.1 30.9 87.6 16 2.2 36
18:10 1021 30.15 850 25.1 30.8 87.5 15 1.4 34.5
18:15 1021 30.15 850 25.1 31 87.8 14 1.1 34
18:20 1021 30.15 850 25.1 30.9 87.6 14 0.9 33.6
18:25 1021 30.15 850 25.1 30.9 87.6 14 1 33.8
18:30 1021 30.15 850 25.1 30.8 87.4 15 1.4 34.6
18:35 1021 30.15 850 25.1 30.9 87.6 14 1.1 34
18:40 1021 30.15 850 25.1 30.7 87.2 15 1.7 35.1
18:45 1021 30.15 850 25.1 31.2 88.2 15 1.6 34.9
18:50 1021 30.15 850 25.1 31.4 88.5 15 2.1 35.7
18:55 1021 30.15 850 25.1 30.5 86.9 21 6.3 43.4
19:00 1021 30.15 850 25.1 30.3 86.6 16 2.2 35.9
19:05 1021 30.15 850 25.1 30.3 86.5 16 2 35.6
19:10 1021 30.15 850 25.1 30.2 86.4 19 4.1 39.4
19:15 1020 30.12 850 25.1 30 86 21 5.8 42.5
19:20 1020 30.12 850 25.1 29.7 85.5 21 5.1 41.2
19:25 1020 30.12 850 25.1 29.4 84.8 21 4.9 40.8
19:30 1020 30.12 850 25.1 29.1 84.4 22 5.6 42.2
19:35 1020 30.12 850 25.1 29 84.1 22 5.3 41.5
19:40 1020 30.12 850 25.1 28.8 83.9 23 6.2 43.1
19:45 1020 30.12 850 25.1 28.8 83.8 22 5.3 41.6
19:50 1020 30.12 850 25.1 28.7 83.7 23 6 42.8
19:55 1020 30.12 850 25.1 28.6 83.5 24 6.6 43.8
20:00 1020 30.12 850 25.1 28.5 83.3 24 6.2 43.1
20:05 1020 30.12 850 25.1 28.5 83.2 23 5.9 42.6
20:10 1020 30.12 850 25.1 28.4 83.1 26 7.1 44.8
20:15 1020 30.12 850 25.1 28.2 82.8 26 6.9 44.5
20:20 1020 30.12 849 25.07 27.9 82.1 27 7.4 45.2
20:25 1020 30.12 849 25.07 27.5 81.6 28 7.7 45.8
20:30 1020 30.12 849 25.07 27.3 81.2 27 7.1 44.8
20:35 1020 30.12 849 25.07 27.2 81 28 7.7 45.8
20:40 1020 30.12 849 25.07 27.1 80.7 29 7.6 45.6
20:45 1020 30.12 849 25.07 26.8 80.2 39 12.1 53.8
20:50 1020 30.12 849 25.07 26.3 79.3 42 12.4 54.3
20:55 1020 30.12 849 25.07 25.5 77.9 43 12.1 53.7
21:00 1020 30.12 849 25.07 24.8 76.6 40 10.7 51.2
21:05 1020 30.12 849 25.07 24.1 75.3 39 9.5 49.1
21:10 1020 30.12 849 25.07 23.5 74.3 41 9.6 49.4
21:15 1020 30.12 849 25.07 23 73.4 46 10.8 51.5
21:20 1020 30.12 850 25.1 22.4 72.3 39 8 46.4
21:25 1020 30.12 850 25.1 22.8 73.1 32 5.3 41.6
21:30 1020 30.12 850 25.1 23.4 74.1 30 5.1 41.3
21:35 1020 30.12 850 25.1 23.4 74 30 5.2 41.4
21:40 1020 30.12 849 25.07 23.4 74 31 5.4 41.7
21:45 1020 30.12 850 25.1 23 73.5 33 6 42.8
21:50 1020 30.12 850 25.1 22.5 72.5 34 5.9 42.5
21:55 1020 30.12 850 25.1 22.3 72.1 34 5.8 42.4
22:00 1020 30.12 850 25.1 22 71.5 36 6.6 43.8
22:05 1020 30.12 850 25.1 21.5 70.7 39 7 44.6
22:10 1021 30.15 850 25.1 21.3 70.4 37 6.4 43.4
22:15 1021 30.15 850 25.1 21.5 70.8 37 6.5 43.8
22:20 1021 30.15 850 25.1 21.5 70.8 37 6.4 43.6
22:25 1021 30.15 850 25.1 21.8 71.2 35 5.8 42.5
22:30 1021 30.15 850 25.1 22 71.7 34 5.6 42.2
22:35 1021 30.15 850 25.1 22 71.7 34 5.5 42
22:40 1021 30.15 850 25.1 22.3 72.1 33 5.5 41.9
22:45 1021 30.15 850 25.1 22.3 72.2 33 5.6 42.1
22:50 1021 30.15 850 25.1 22.3 72.1 34 6.1 42.9
22:55 1021 30.15 850 25.1 22.1 71.7 35 6 42.7
23:00 1021 30.15 850 25.1 22.1 71.7 34 5.7 42.2
23:05 1021 30.15 850 25.1 22.1 71.8 30 3.9 39
23:10 1020 30.12 850 25.1 22.9 73.2 32 5.3 41.6
23:15 1020 30.12 850 25.1 22.5 72.5 32 5 41
23:20 1020 30.12 850 25.1 22.5 72.6 34 5.9 42.6
23:25 1020 30.12 850 25.1 22.6 72.6 31 4.7 40.5
23:30 1020 30.12 849 25.07 22.5 72.4 32 5.2 41.4
23:35 1020 30.12 849 25.07 22.1 71.8 32 4.8 40.7
23:40 1020 30.12 849 25.07 22.3 72.2 30 4.2 39.6
23:45 1020 30.12 849 25.07 22.4 72.3 32 5 41
23:50 1020 30.12 849 25.07 21.8 71.2 32 4.6 40.4
23:55 1020 30.12 849 25.07 21.6 70.9 34 5.1 41.2
24:00 1020 30.12 849 25.07 20.9 69.6 36 5.3 41.5